Time;durP1;ratioP1;P1;durP2;ratioP2;P2;SDS_P1;SDS_P2;PMS_P1;PMS_P2;Temp;Humidity;BMP_temperature;BMP_pressure;BME280_temperature;BME280_humidity;BME280_pressure;Samples;Min_cycle;Max_cycle;Signal;HPM_P1;HPM_P2
2023/04/18 00:01:55;;;;;;;7.22;5.13;;;9.50;99.90;;;;;;5096637;28;20414;-60
2023/04/18 00:04:22;;;;;;;6.80;4.43;;;9.60;99.90;;;;;;5096657;28;20422;-60
2023/04/18 00:06:49;;;;;;;4.70;3.97;;;9.70;99.90;;;;;;5096686;28;20425;-60
2023/04/18 00:09:16;;;;;;;5.63;4.38;;;9.70;99.90;;;;;;5096357;28;20461;-61
2023/04/18 00:11:44;;;;;;;6.85;5.32;;;9.80;99.90;;;;;;5096750;28;20422;-61
2023/04/18 00:14:11;;;;;;;7.20;5.32;;;9.90;99.90;;;;;;5095590;28;20417;-60
2023/04/18 00:16:38;;;;;;;6.60;4.30;;;9.80;99.90;;;;;;5094773;28;20425;-60
2023/04/18 00:19:07;;;;;;;6.10;4.50;;;9.60;99.90;;;;;;5096249;28;20505;-60
2023/04/18 00:21:34;;;;;;;5.63;4.63;;;9.60;99.90;;;;;;5096309;28;20512;-61
2023/04/18 00:24:01;;;;;;;7.05;5.32;;;9.70;99.90;;;;;;5095792;28;20783;-60
2023/04/18 00:26:28;;;;;;;6.25;4.80;;;9.70;99.90;;;;;;5096290;28;20421;-62
2023/04/18 00:28:55;;;;;;;7.38;4.25;;;9.80;99.90;;;;;;5094808;28;20479;-62
2023/04/18 00:31:22;;;;;;;4.65;3.83;;;9.80;99.90;;;;;;5094354;28;20819;-61
2023/04/18 00:33:49;;;;;;;5.80;3.85;;;9.90;99.90;;;;;;5095669;28;20475;-61
2023/04/18 00:36:18;;;;;;;4.53;3.50;;;9.90;99.90;;;;;;5093074;28;20735;-61
2023/04/18 00:38:45;;;;;;;5.97;4.43;;;9.90;99.90;;;;;;5094924;28;20422;-61
2023/04/18 00:41:12;;;;;;;6.50;4.65;;;9.80;99.90;;;;;;5095282;28;20438;-61
2023/04/18 00:43:39;;;;;;;6.35;4.65;;;9.80;99.90;;;;;;5095101;28;20422;-61
2023/04/18 00:46:06;;;;;;;6.20;4.80;;;9.70;99.90;;;;;;5095979;28;20437;-60
2023/04/18 00:48:33;;;;;;;5.95;4.53;;;9.70;99.90;;;;;;5094800;28;20469;-61
2023/04/18 00:51:01;;;;;;;7.35;4.88;;;9.60;99.90;;;;;;5095739;28;20426;-61
2023/04/18 00:53:30;;;;;;;4.20;3.45;;;9.40;99.90;;;;;;5094405;28;20512;-61
2023/04/18 00:55:57;;;;;;;5.93;3.95;;;9.40;99.90;;;;;;5094661;28;20429;-61
2023/04/18 00:58:24;;;;;;;7.05;3.97;;;9.50;99.90;;;;;;5095596;28;20422;-61
2023/04/18 01:00:52;;;;;;;6.47;4.18;;;9.60;99.90;;;;;;5095632;28;20498;-61
2023/04/18 01:03:21;;;;;;;6.80;3.97;;;9.60;99.90;;;;;;5095028;28;20429;-61
2023/04/18 01:05:48;;;;;;;5.53;4.10;;;9.70;99.90;;;;;;5095679;28;20429;-61
2023/04/18 01:08:15;;;;;;;4.70;3.63;;;9.70;99.90;;;;;;5094862;28;20467;-61
2023/04/18 01:10:44;;;;;;;6.13;3.80;;;9.70;99.90;;;;;;5095593;28;21031;-61
2023/04/18 01:13:12;;;;;;;6.90;4.50;;;9.60;99.90;;;;;;5094945;28;20472;-61
2023/04/18 01:15:43;;;;;;;4.97;4.25;;;9.70;99.90;;;;;;5094615;28;20422;-62
2023/04/18 01:18:10;;;;;;;6.00;4.50;;;9.70;99.90;;;;;;5094113;28;20422;-61
2023/04/18 01:20:40;;;;;;;5.45;4.00;;;9.70;99.90;;;;;;5093569;28;20426;-61
2023/04/18 01:23:09;;;;;;;5.63;4.10;;;9.70;99.90;;;;;;5093537;28;20418;-61
2023/04/18 01:25:38;;;;;;;6.32;4.03;;;9.70;99.90;;;;;;5093968;28;20429;-61
2023/04/18 01:28:06;;;;;;;5.93;3.60;;;9.70;99.90;;;;;;5094093;28;20418;-61
2023/04/18 01:30:33;;;;;;;5.07;4.13;;;9.70;99.90;;;;;;5094744;28;20468;-61
2023/04/18 01:33:01;;;;;;;5.00;3.72;;;9.70;99.90;;;;;;5095385;28;20421;-61
2023/04/18 01:35:28;;;;;;;6.10;4.00;;;9.70;99.90;;;;;;5095535;28;20520;-61
2023/04/18 01:37:55;;;;;;;4.50;3.67;;;9.60;99.90;;;;;;5094698;28;20422;-61
2023/04/18 01:40:23;;;;;;;4.55;3.58;;;9.50;99.90;;;;;;5094021;28;20438;-61
2023/04/18 01:42:52;;;;;;;6.37;3.50;;;9.50;99.90;;;;;;5094738;28;20491;-61
2023/04/18 01:45:21;;;;;;;4.10;3.53;;;9.50;99.90;;;;;;5094880;28;20436;-60
2023/04/18 01:47:50;;;;;;;7.25;4.15;;;9.50;99.90;;;;;;5094775;28;20530;-60
2023/04/18 01:50:17;;;;;;;4.82;3.63;;;9.50;99.90;;;;;;5094612;28;20841;-59
2023/04/18 01:52:44;;;;;;;5.95;4.22;;;9.30;99.90;;;;;;5094244;28;20418;-59
2023/04/18 01:55:11;;;;;;;6.43;3.80;;;9.30;99.90;;;;;;5095188;28;20509;-59
2023/04/18 01:57:38;;;;;;;6.50;4.00;;;9.20;99.90;;;;;;5094875;28;20891;-60
2023/04/18 02:00:08;;;;;;;5.47;4.38;;;9.20;99.90;;;;;;5094677;28;20433;-60
2023/04/18 02:02:35;;;;;;;5.90;3.40;;;9.20;99.90;;;;;;5094542;28;20418;-60
2023/04/18 02:05:02;;;;;;;5.07;3.38;;;9.30;99.90;;;;;;5094635;28;20429;-59
2023/04/18 02:07:29;;;;;;;4.40;3.42;;;9.30;99.90;;;;;;5093704;28;20429;-60
2023/04/18 02:09:56;;;;;;;4.50;3.50;;;9.30;99.90;;;;;;5094161;28;20426;-60
2023/04/18 02:12:23;;;;;;;5.10;3.70;;;9.30;99.90;;;;;;5094529;28;20433;-60
2023/04/18 02:14:52;;;;;;;6.07;3.70;;;9.30;99.90;;;;;;5094407;28;20474;-61
2023/04/18 02:17:22;;;;;;;4.90;3.65;;;9.30;99.90;;;;;;5094670;28;20505;-60
2023/04/18 02:19:50;;;;;;;5.82;3.88;;;9.40;99.90;;;;;;5094249;28;20422;-60
2023/04/18 02:22:17;;;;;;;4.70;3.20;;;9.40;99.90;;;;;;5094646;28;20513;-60
2023/04/18 02:24:44;;;;;;;4.25;3.30;;;9.50;99.90;;;;;;5094650;28;20499;-60
2023/04/18 02:27:12;;;;;;;5.30;3.97;;;9.50;99.90;;;;;;5094213;28;20418;-60
2023/04/18 02:29:39;;;;;;;5.35;3.75;;;9.30;99.90;;;;;;5094681;28;20421;-60
2023/04/18 02:32:06;;;;;;;5.55;3.75;;;9.20;99.90;;;;;;5094272;28;20429;-61
2023/04/18 02:34:36;;;;;;;5.20;3.27;;;9.30;99.90;;;;;;5094356;28;20911;-60
2023/04/18 02:37:03;;;;;;;4.60;3.58;;;9.30;99.90;;;;;;5094850;28;20421;-60
2023/04/18 02:39:30;;;;;;;6.95;4.30;;;9.20;99.90;;;;;;5094562;28;20482;-59
2023/04/18 02:41:57;;;;;;;6.63;3.70;;;9.20;99.90;;;;;;5098516;28;20516;-60
2023/04/18 02:44:25;;;;;;;5.10;3.13;;;9.30;99.90;;;;;;5097875;28;20515;-60
2023/04/18 02:46:52;;;;;;;5.50;3.90;;;9.30;99.90;;;;;;5098326;28;20535;-59
2023/04/18 02:49:19;;;;;;;5.93;3.80;;;9.40;99.90;;;;;;5098392;28;20488;-60
2023/04/18 02:51:47;;;;;;;6.38;3.90;;;9.30;99.90;;;;;;5097285;28;20451;-60
2023/04/18 02:54:14;;;;;;;5.40;3.65;;;9.30;99.90;;;;;;5096320;28;20425;-60
2023/04/18 02:56:41;;;;;;;5.53;3.15;;;9.20;99.90;;;;;;5097591;28;20899;-61
2023/04/18 02:59:09;;;;;;;5.55;3.58;;;9.10;99.90;;;;;;5097345;28;20418;-61
2023/04/18 03:01:36;;;;;;;4.20;3.30;;;9.20;99.90;;;;;;5097414;28;20525;-60
2023/04/18 03:04:03;;;;;;;6.80;3.75;;;9.20;99.90;;;;;;5097421;28;20513;-59
2023/04/18 03:06:30;;;;;;;6.88;3.53;;;9.20;99.90;;;;;;5097671;28;20786;-60
2023/04/18 03:08:59;;;;;;;4.40;2.92;;;9.30;99.90;;;;;;5097440;28;20582;-60
2023/04/18 03:11:26;;;;;;;4.47;3.03;;;9.30;99.90;;;;;;5097483;28;20426;-60
2023/04/18 03:13:54;;;;;;;4.73;3.37;;;9.30;99.90;;;;;;5097916;28;20418;-60
2023/04/18 03:16:21;;;;;;;6.33;3.63;;;9.30;99.90;;;;;;5097960;28;20490;-59
2023/04/18 03:18:48;;;;;;;5.13;3.40;;;9.10;99.90;;;;;;5097190;28;20418;-60
2023/04/18 03:21:15;;;;;;;4.32;3.47;;;9.00;99.90;;;;;;5097758;28;20434;-60
2023/04/18 03:23:42;;;;;;;4.70;3.70;;;8.90;99.90;;;;;;5097414;28;20417;-62
2023/04/18 03:26:11;;;;;;;4.68;2.30;;;8.90;99.90;;;;;;5097667;28;20479;-60
2023/04/18 03:28:38;;;;;;;4.28;3.65;;;9.00;99.90;;;;;;5097267;28;20825;-60
2023/04/18 03:31:05;;;;;;;6.60;3.40;;;9.10;99.90;;;;;;5095606;28;20425;-60
2023/04/18 03:33:32;;;;;;;5.60;3.42;;;9.20;99.90;;;;;;5096934;28;20422;-59
2023/04/18 03:36:00;;;;;;;4.93;3.65;;;9.20;99.90;;;;;;5096629;28;20431;-60
2023/04/18 03:38:27;;;;;;;4.60;3.50;;;9.20;99.90;;;;;;5083270;28;20475;-61
2023/04/18 03:40:54;;;;;;;5.55;3.08;;;9.20;99.90;;;;;;5095882;28;20916;-61
2023/04/18 03:43:22;;;;;;;4.72;3.50;;;9.10;99.90;;;;;;5095719;28;20787;-60
2023/04/18 03:45:49;;;;;;;5.13;3.53;;;9.20;99.90;;;;;;5095971;28;20434;-61
2023/04/18 03:48:16;;;;;;;4.32;3.90;;;9.20;99.90;;;;;;5096676;28;20418;-60
2023/04/18 03:50:43;;;;;;;5.18;3.47;;;9.10;99.90;;;;;;5096422;28;20449;-60
2023/04/18 03:53:10;;;;;;;4.30;3.42;;;9.00;99.90;;;;;;5096165;28;20418;-59
2023/04/18 03:55:38;;;;;;;5.38;2.78;;;9.00;99.90;;;;;;5096212;28;20432;-60
2023/04/18 03:58:05;;;;;;;4.60;2.03;;;9.10;99.90;;;;;;5095282;28;20428;-61
2023/04/18 04:00:33;;;;;;;7.40;4.20;;;9.20;99.90;;;;;;5096489;28;20440;-62
2023/04/18 04:03:00;;;;;;;5.32;4.00;;;9.20;99.90;;;;;;5094567;28;20441;-61
2023/04/18 04:05:28;;;;;;;6.50;3.70;;;9.20;99.90;;;;;;5095728;28;20430;-62
2023/04/18 04:07:55;;;;;;;5.15;4.40;;;9.10;99.90;;;;;;5096568;28;20446;-62
2023/04/18 04:10:22;;;;;;;5.60;4.00;;;9.20;99.90;;;;;;5096096;28;20425;-62
2023/04/18 04:12:49;;;;;;;4.90;3.53;;;9.00;99.90;;;;;;5096535;28;20418;-62
2023/04/18 04:15:16;;;;;;;4.43;3.17;;;8.90;99.90;;;;;;5095053;28;20723;-62
2023/04/18 04:17:45;;;;;;;6.00;3.58;;;8.90;99.90;;;;;;5094165;28;20488;-62
2023/04/18 04:20:12;;;;;;;6.78;4.35;;;8.90;99.90;;;;;;5094210;28;20518;-62
2023/04/18 04:22:40;;;;;;;5.95;4.07;;;8.70;99.90;;;;;;5094548;28;20410;-62
2023/04/18 04:25:09;;;;;;;9.18;4.30;;;8.70;99.90;;;;;;5094886;28;20453;-62
2023/04/18 04:27:37;;;;;;;5.68;4.00;;;8.70;99.90;;;;;;5095092;28;20426;-62
2023/04/18 04:30:06;;;;;;;5.10;3.40;;;8.70;99.90;;;;;;5095839;28;20432;-62
2023/04/18 04:32:33;;;;;;;5.70;3.72;;;8.60;99.90;;;;;;5095840;28;20418;-61
2023/04/18 04:35:01;;;;;;;5.70;3.80;;;8.60;99.90;;;;;;5096211;28;20429;-57
2023/04/18 04:37:28;;;;;;;7.82;4.57;;;8.60;99.90;;;;;;5096104;28;20418;-58
2023/04/18 04:39:59;;;;;;;6.00;3.10;;;8.80;99.90;;;;;;5094878;28;20467;-58
2023/04/18 04:42:27;;;;;;;6.78;3.60;;;8.90;99.90;;;;;;5094873;28;20426;-58
2023/04/18 04:44:54;;;;;;;6.00;4.00;;;9.10;99.90;;;;;;5095629;28;20425;-57
2023/04/18 04:47:21;;;;;;;5.53;3.50;;;9.10;99.90;;;;;;5096432;28;20417;-59
2023/04/18 04:49:48;;;;;;;5.15;3.08;;;9.10;99.90;;;;;;5094782;28;20430;-58
2023/04/18 04:52:16;;;;;;;5.60;4.18;;;9.20;99.90;;;;;;5094627;28;20410;-59
2023/04/18 04:54:44;;;;;;;4.55;3.20;;;9.10;99.90;;;;;;5094031;28;20433;-59
2023/04/18 04:57:11;;;;;;;5.20;3.40;;;9.10;99.90;;;;;;5093492;28;20457;-59
2023/04/18 04:59:38;;;;;;;6.10;4.13;;;9.20;99.90;;;;;;5093421;28;20429;-59
2023/04/18 05:02:05;;;;;;;4.95;4.07;;;9.30;99.90;;;;;;5094130;28;20497;-58
2023/04/18 05:04:32;;;;;;;3.73;3.10;;;9.10;99.90;;;;;;5090623;28;20544;-59
2023/04/18 05:07:00;;;;;;;6.13;4.57;;;9.10;99.90;;;;;;5094035;28;20418;-59
2023/04/18 05:09:28;;;;;;;6.88;4.75;;;9.00;99.90;;;;;;5093636;28;20430;-58
2023/04/18 05:11:55;;;;;;;5.30;4.03;;;8.70;99.90;;;;;;5091314;28;20833;-58
2023/04/18 05:14:24;;;;;;;5.50;3.90;;;8.60;99.90;;;;;;5090881;28;20448;-58
2023/04/18 05:16:50;;;;;;;5.20;4.30;;;8.70;99.90;;;;;;5092734;28;20429;-58
2023/04/18 05:19:18;;;;;;;7.40;4.43;;;8.80;99.90;;;;;;5092339;28;20422;-57
2023/04/18 05:21:47;;;;;;;4.85;3.67;;;8.80;99.90;;;;;;5090673;28;20425;-58
2023/04/18 05:24:14;;;;;;;5.07;3.55;;;8.90;99.90;;;;;;5090461;28;20442;-59
2023/04/18 05:26:43;;;;;;;6.70;3.60;;;9.10;99.90;;;;;;5090281;28;20425;-59
2023/04/18 05:29:10;;;;;;;6.63;4.20;;;9.40;99.90;;;;;;5092067;28;20417;-58
2023/04/18 05:31:37;;;;;;;4.88;3.40;;;9.40;99.90;;;;;;5089221;28;20414;-58
2023/04/18 05:34:04;;;;;;;4.95;4.18;;;9.40;99.90;;;;;;5091664;28;20426;-59
2023/04/18 05:36:31;;;;;;;5.38;3.45;;;9.40;99.90;;;;;;5090924;28;20422;-60
2023/04/18 05:38:58;;;;;;;5.00;3.63;;;9.30;99.90;;;;;;5091317;28;20418;-60
2023/04/18 05:41:25;;;;;;;5.20;3.97;;;9.50;99.90;;;;;;5093049;28;20490;-59
2023/04/18 05:43:54;;;;;;;5.10;4.30;;;9.50;99.90;;;;;;5090191;28;20425;-59
2023/04/18 05:46:21;;;;;;;5.45;3.22;;;9.40;99.90;;;;;;5091227;28;20486;-59
2023/04/18 05:48:48;;;;;;;4.75;3.50;;;9.50;99.90;;;;;;5091046;28;20421;-59
2023/04/18 05:51:15;;;;;;;7.32;4.70;;;9.50;99.90;;;;;;5091513;28;20417;-59
2023/04/18 05:53:42;;;;;;;5.20;3.70;;;9.40;99.90;;;;;;5090931;28;20421;-59
2023/04/18 05:56:09;;;;;;;6.95;4.40;;;9.40;99.90;;;;;;5090002;28;20729;-58
2023/04/18 05:58:36;;;;;;;6.22;4.43;;;9.30;99.90;;;;;;5089633;28;21048;-59
2023/04/18 06:01:05;;;;;;;4.82;3.95;;;9.40;99.90;;;;;;5091245;28;20430;-59
2023/04/18 06:03:32;;;;;;;5.25;4.20;;;9.40;99.90;;;;;;5089740;28;20417;-58
2023/04/18 06:05:59;;;;;;;5.72;4.28;;;9.50;99.90;;;;;;5086366;28;20444;-60
2023/04/18 06:08:26;;;;;;;4.82;2.92;;;9.40;99.90;;;;;;5088569;28;20841;-57
2023/04/18 06:10:53;;;;;;;7.00;4.32;;;9.30;99.90;;;;;;5089067;28;20426;-59
2023/04/18 06:13:20;;;;;;;5.57;4.30;;;9.30;99.90;;;;;;5090128;28;20453;-59
2023/04/18 06:15:47;;;;;;;6.32;4.75;;;9.40;99.90;;;;;;5093585;28;20489;-59
2023/04/18 06:18:15;;;;;;;5.75;3.80;;;9.30;99.90;;;;;;5092654;28;20735;-59
2023/04/18 06:20:44;;;;;;;6.30;4.40;;;9.20;99.90;;;;;;5094700;28;20475;-57
2023/04/18 06:23:11;;;;;;;6.45;4.18;;;9.20;99.90;;;;;;5095321;28;20429;-58
2023/04/18 06:25:38;;;;;;;5.60;4.35;;;9.10;99.90;;;;;;5095225;28;20433;-58
2023/04/18 06:28:05;;;;;;;5.13;3.85;;;9.00;99.90;;;;;;5093414;28;20417;-59
2023/04/18 06:30:32;;;;;;;6.82;4.30;;;9.00;99.90;;;;;;5094611;28;20433;-58
2023/04/18 06:32:59;;;;;;;6.60;4.38;;;9.00;99.90;;;;;;5095281;28;20871;-59
2023/04/18 06:35:30;;;;;;;8.35;5.60;;;9.10;99.90;;;;;;5094584;28;20433;-59
2023/04/18 06:37:57;;;;;;;6.10;4.22;;;9.20;99.90;;;;;;5091344;28;20833;-59
2023/04/18 06:40:24;;;;;;;6.10;4.50;;;9.30;99.90;;;;;;5093547;28;20444;-59
2023/04/18 06:42:51;;;;;;;6.50;5.22;;;9.20;99.90;;;;;;5094751;28;20434;-58
2023/04/18 06:45:18;;;;;;;7.65;4.65;;;9.30;99.90;;;;;;5094540;28;20425;-59
2023/04/18 06:47:46;;;;;;;6.07;4.70;;;9.20;99.90;;;;;;5093489;28;20418;-60
2023/04/18 06:50:14;;;;;;;8.10;4.10;;;9.20;99.90;;;;;;5092813;28;20756;-59
2023/04/18 06:52:44;;;;;;;7.45;5.40;;;9.40;99.90;;;;;;5092394;28;20420;-58
2023/04/18 06:55:12;;;;;;;5.97;4.00;;;9.40;99.90;;;;;;5095297;28;20429;-59
2023/04/18 06:57:41;;;;;;;6.00;4.22;;;9.40;99.90;;;;;;5095863;28;20418;-59
2023/04/18 07:00:09;;;;;;;6.90;4.83;;;9.60;99.90;;;;;;5093431;28;20494;-59
2023/04/18 07:02:37;;;;;;;5.72;4.40;;;9.60;99.90;;;;;;5094489;28;20867;-59
2023/04/18 07:05:05;;;;;;;5.45;4.07;;;9.80;99.90;;;;;;5095201;28;20429;-59
2023/04/18 07:07:32;;;;;;;6.53;5.00;;;9.60;99.90;;;;;;5095562;28;20417;-59
2023/04/18 07:10:01;;;;;;;6.97;4.57;;;9.70;99.90;;;;;;5093142;28;20670;-58
2023/04/18 07:12:28;;;;;;;5.55;3.60;;;9.90;99.90;;;;;;5089115;28;20587;-58
2023/04/18 07:14:55;;;;;;;6.50;4.13;;;10.00;99.90;;;;;;5092839;28;20425;-57
2023/04/18 07:17:22;;;;;;;4.65;3.58;;;10.00;99.90;;;;;;5092680;28;20432;-57
2023/04/18 07:19:49;;;;;;;5.40;4.07;;;10.10;99.90;;;;;;5092269;28;20876;-56
2023/04/18 07:22:16;;;;;;;6.25;4.18;;;10.20;99.90;;;;;;5091853;28;20426;-63
2023/04/18 07:24:43;;;;;;;5.93;3.85;;;10.30;99.90;;;;;;5091858;28;20892;-63
2023/04/18 07:27:12;;;;;;;6.00;3.95;;;10.30;99.90;;;;;;5089292;28;20730;-63
2023/04/18 07:29:38;;;;;;;6.97;4.70;;;10.50;99.90;;;;;;5092102;28;20486;-63
2023/04/18 07:32:05;;;;;;;5.78;3.65;;;10.70;99.90;;;;;;5093215;28;20618;-61
2023/04/18 07:34:34;;;;;;;4.75;4.10;;;10.70;99.90;;;;;;5092233;28;20475;-62
2023/04/18 07:37:02;;;;;;;5.80;3.67;;;10.50;99.90;;;;;;5092797;28;20421;-61
2023/04/18 07:39:30;;;;;;;6.70;3.70;;;10.50;99.90;;;;;;5093891;28;20449;-61
2023/04/18 07:41:57;;;;;;;6.80;4.35;;;10.30;99.90;;;;;;5094164;28;20422;-60
2023/04/18 07:44:26;;;;;;;6.82;5.03;;;10.40;99.90;;;;;;5093088;28;20422;-61
2023/04/18 07:46:53;;;;;;;6.38;4.85;;;10.50;99.90;;;;;;5092958;28;20425;-61
2023/04/18 07:49:20;;;;;;;5.63;3.35;;;10.60;99.90;;;;;;5090904;28;20482;-62
2023/04/18 07:51:47;;;;;;;4.57;3.05;;;10.70;99.90;;;;;;5089251;28;20815;-61
2023/04/18 07:54:14;;;;;;;6.00;3.70;;;10.90;99.90;;;;;;5089784;28;20414;-63
2023/04/18 07:56:41;;;;;;;4.97;4.00;;;10.90;99.90;;;;;;5092102;28;20410;-62
2023/04/18 07:59:08;;;;;;;5.63;3.63;;;10.80;99.90;;;;;;5091990;28;20482;-63
2023/04/18 08:01:36;;;;;;;9.00;4.77;;;10.70;99.90;;;;;;5090493;28;20448;-60
2023/04/18 08:04:03;;;;;;;5.60;3.90;;;10.80;99.90;;;;;;5092951;28;20414;-60
2023/04/18 08:06:30;;;;;;;5.88;3.65;;;10.80;99.90;;;;;;5093422;28;20482;-62
2023/04/18 08:09:02;;;;;;;5.30;4.07;;;10.70;99.90;;;;;;5094242;28;20424;-62
2023/04/18 08:11:30;;;;;;;5.30;3.05;;;10.80;99.90;;;;;;5092479;28;20495;-62
2023/04/18 08:13:57;;;;;;;5.68;4.00;;;11.00;99.90;;;;;;5092972;28;20486;-61
2023/04/18 08:16:24;;;;;;;7.03;4.40;;;11.20;99.90;;;;;;5093629;28;20495;-62
2023/04/18 08:18:52;;;;;;;6.65;3.88;;;11.30;99.90;;;;;;5093663;28;20864;-62
2023/04/18 08:21:20;;;;;;;5.78;3.80;;;11.50;99.90;;;;;;5093525;28;20764;-63
2023/04/18 08:23:47;;;;;;;5.28;3.97;;;11.70;99.90;;;;;;5091783;28;20430;-63
2023/04/18 08:26:14;;;;;;;5.97;3.50;;;11.70;99.90;;;;;;5090900;28;20429;-62
2023/04/18 08:28:41;;;;;;;6.05;3.80;;;11.70;99.90;;;;;;5092579;28;20422;-63
2023/04/18 08:31:13;;;;;;;5.65;3.50;;;11.70;99.90;;;;;;5092247;28;20426;-62
2023/04/18 08:33:40;;;;;;;5.40;4.25;;;11.80;99.90;;;;;;5092311;28;20684;-63
2023/04/18 08:36:10;;;;;;;5.85;4.03;;;11.90;99.90;;;;;;5090427;28;20422;-62
2023/04/18 08:38:37;;;;;;;5.30;3.53;;;11.90;99.90;;;;;;5090793;28;20422;-62
2023/04/18 08:41:05;;;;;;;4.20;3.38;;;12.00;99.90;;;;;;5089264;28;21151;-62
2023/04/18 08:43:32;;;;;;;5.70;4.50;;;12.20;99.90;;;;;;5090455;28;20422;-61
2023/04/18 08:46:00;;;;;;;5.70;4.22;;;12.00;99.90;;;;;;5092113;28;20799;-61
2023/04/18 08:48:28;;;;;;;5.82;4.03;;;11.90;99.90;;;;;;5092784;28;20418;-62
2023/04/18 08:50:57;;;;;;;6.90;5.18;;;11.80;99.90;;;;;;5093621;28;20430;-63
2023/04/18 08:53:26;;;;;;;6.20;4.43;;;11.80;99.90;;;;;;5092699;28;20422;-63
2023/04/18 08:55:55;;;;;;;6.70;4.18;;;11.90;99.90;;;;;;5090302;28;20437;-62
2023/04/18 08:58:23;;;;;;;4.97;3.58;;;12.20;99.90;;;;;;5093227;28;20524;-62
2023/04/18 09:00:51;;;;;;;6.15;4.80;;;12.50;99.90;;;;;;5091157;28;20447;-61
2023/04/18 09:03:37;;;;;;;5.13;3.15;;;12.70;99.90;;;;;;5091017;28;20438;-61
2023/04/18 09:06:17;;;;;;;4.32;3.38;;;12.90;99.90;;;;;;5090820;28;20433;-59
2023/04/18 09:08:56;;;;;;;5.50;3.60;;;13.10;99.90;;;;;;5091897;28;20422;-60
2023/04/18 09:11:28;;;;;;;6.60;4.50;;;13.20;99.90;;;;;;5092233;28;20702;-59
2023/04/18 09:13:57;;;;;;;5.65;4.43;;;13.40;99.90;;;;;;5087908;28;20410;-59
2023/04/18 09:16:26;;;;;;;7.18;4.68;;;13.00;99.90;;;;;;5088973;28;20455;-60
2023/04/18 09:19:13;;;;;;;5.80;4.20;;;12.70;99.90;;;;;;5089265;28;20513;-60
2023/04/18 09:21:41;;;;;;;4.97;4.10;;;12.40;99.90;;;;;;5089706;28;20814;-60
2023/04/18 09:24:22;;;;;;;5.85;3.85;;;12.40;99.90;;;;;;5088795;28;20437;-61
2023/04/18 09:26:52;;;;;;;8.75;4.78;;;12.50;99.90;;;;;;5089744;28;20418;-61
2023/04/18 09:29:21;;;;;;;5.70;4.28;;;12.60;99.90;;;;;;5091440;28;20792;-61
2023/04/18 09:31:56;;;;;;;5.03;4.30;;;12.50;99.90;;;;;;5090836;28;20433;-60
2023/04/18 09:34:25;;;;;;;5.67;3.63;;;12.50;99.90;;;;;;5088180;28;20425;-60
2023/04/18 09:37:06;;;;;;;6.43;4.28;;;12.60;99.90;;;;;;5088501;28;20421;-59
2023/04/18 09:39:35;;;;;;;7.00;4.20;;;12.40;99.90;;;;;;5091284;28;20740;-63
2023/04/18 09:42:02;;;;;;;5.05;4.30;;;12.50;99.90;;;;;;5091408;28;20838;-63
2023/04/18 09:44:29;;;;;;;6.25;4.18;;;12.60;99.90;;;;;;5090147;28;20933;-63
2023/04/18 09:46:56;;;;;;;5.95;4.43;;;12.70;99.90;;;;;;5088800;28;20417;-62
2023/04/18 09:49:23;;;;;;;6.97;4.05;;;12.70;99.90;;;;;;5088771;28;20891;-64
2023/04/18 09:51:53;;;;;;;4.88;3.95;;;12.70;99.90;;;;;;5091640;28;20426;-62
2023/04/18 09:54:22;;;;;;;6.63;5.10;;;12.70;99.90;;;;;;5089804;28;20806;-62
2023/04/18 09:56:53;;;;;;;5.43;4.40;;;12.50;99.90;;;;;;5089401;28;20726;-63
2023/04/18 09:59:30;;;;;;;6.30;4.80;;;12.30;99.90;;;;;;5092237;28;20426;-62
2023/04/18 10:01:59;;;;;;;6.32;5.25;;;12.40;99.90;;;;;;5090657;28;20425;-61
2023/04/18 10:04:27;;;;;;;7.50;5.78;;;12.60;99.90;;;;;;5088513;28;20763;-63
2023/04/18 10:06:54;;;;;;;5.47;4.65;;;12.70;99.90;;;;;;5089909;28;20906;-63
2023/04/18 10:09:23;;;;;;;5.83;4.40;;;12.80;99.90;;;;;;5090019;28;20450;-62
2023/04/18 10:11:51;;;;;;;6.38;4.22;;;13.00;99.90;;;;;;5089875;28;20446;-65
2023/04/18 10:14:20;;;;;;;6.75;4.35;;;13.30;99.90;;;;;;5089768;28;20432;-63
2023/04/18 10:16:47;;;;;;;4.90;3.83;;;13.50;99.90;;;;;;5089177;28;20487;-63
2023/04/18 10:19:21;;;;;;;7.40;5.70;;;13.60;99.90;;;;;;5088904;28;20906;-62
2023/04/18 10:21:53;;;;;;;5.13;4.38;;;13.70;99.90;;;;;;5090762;28;20835;-64
2023/04/18 10:24:52;;;;;;;6.07;5.47;;;13.60;99.90;;;;;;5090122;28;20502;-63
2023/04/18 10:28:00;;;;;;;6.15;4.28;;;13.80;99.90;;;;;;5088505;28;20714;-63
2023/04/18 10:30:51;;;;;;;5.15;3.55;;;13.80;99.90;;;;;;5088637;28;20430;-63
2023/04/18 10:33:31;;;;;;;5.72;3.97;;;13.70;99.90;;;;;;5089269;28;20416;-63
2023/04/18 10:36:15;;;;;;;5.07;3.50;;;13.60;99.90;;;;;;5088484;28;20422;-62
2023/04/18 10:38:47;;;;;;;3.40;3.10;;;13.90;99.90;;;;;;5090332;28;20551;-62
2023/04/18 10:41:21;;;;;;;4.20;3.40;;;14.00;99.90;;;;;;5089231;28;20527;-61
2023/04/18 10:44:21;;;;;;;4.28;2.95;;;13.80;99.90;;;;;;5089380;28;20436;-62
2023/04/18 10:47:31;;;;;;;4.93;3.90;;;13.80;99.90;;;;;;5079019;28;20429;-60
2023/04/18 10:50:02;;;;;;;4.70;3.40;;;13.60;99.90;;;;;;5086450;28;20528;-63
2023/04/18 10:52:30;;;;;;;5.15;3.40;;;13.80;99.90;;;;;;5081776;28;20452;-63
2023/04/18 10:55:19;;;;;;;4.65;3.05;;;14.00;99.90;;;;;;5087515;28;20626;-61
2023/04/18 10:57:47;;;;;;;3.93;2.77;;;14.10;99.90;;;;;;5086046;28;20457;-61
2023/04/18 11:00:17;;;;;;;5.03;2.67;;;14.10;99.90;;;;;;5085504;28;20885;-61
2023/04/18 11:02:54;;;;;;;4.50;2.53;;;14.00;99.90;;;;;;5093717;28;20426;-62
2023/04/18 11:05:24;;;;;;;4.47;2.53;;;14.10;99.90;;;;;;5093003;28;20512;-62
2023/04/18 11:07:51;;;;;;;2.80;2.17;;;14.00;99.90;;;;;;5090944;28;20422;-61
2023/04/18 11:10:20;;;;;;;3.53;2.40;;;14.30;99.90;;;;;;5078409;28;20456;-62
2023/04/18 11:12:48;;;;;;;2.50;2.10;;;14.60;99.90;;;;;;5083222;28;20419;-63
2023/04/18 11:15:20;;;;;;;4.07;2.35;;;14.90;99.90;;;;;;5083306;28;20584;-61
2023/04/18 11:17:54;;;;;;;3.30;2.30;;;14.70;99.90;;;;;;5069429;28;20473;-61
2023/04/18 11:20:21;;;;;;;2.55;1.88;;;14.60;99.90;;;;;;5070089;28;20522;-60
2023/04/18 11:22:51;;;;;;;2.28;1.60;;;14.60;99.90;;;;;;5071786;28;20496;-61
2023/04/18 11:25:21;;;;;;;2.80;2.25;;;14.30;99.90;;;;;;5072213;28;20509;-61
2023/04/18 11:27:50;;;;;;;2.50;1.98;;;14.30;99.90;;;;;;5071714;28;20627;-61
2023/04/18 11:30:19;;;;;;;3.17;1.53;;;14.40;99.90;;;;;;5070992;28;20427;-61
2023/04/18 11:32:46;;;;;;;2.40;1.70;;;14.50;99.90;;;;;;5073764;28;20900;-63
2023/04/18 11:35:14;;;;;;;2.47;1.50;;;14.50;99.90;;;;;;5074486;28;20427;-62
2023/04/18 11:37:44;;;;;;;2.30;1.52;;;14.50;99.90;;;;;;5074492;28;20546;-61
2023/04/18 11:40:12;;;;;;;2.10;1.20;;;14.50;99.90;;;;;;5071391;28;20546;-61
2023/04/18 11:42:40;;;;;;;3.40;1.30;;;14.50;99.90;;;;;;5071890;28;20497;-61
2023/04/18 11:45:11;;;;;;;2.05;1.42;;;14.40;99.90;;;;;;5079532;28;20495;-61
2023/04/18 11:47:41;;;;;;;2.17;1.48;;;14.50;99.90;;;;;;5088417;28;20460;-62
2023/04/18 11:50:10;;;;;;;2.00;1.40;;;14.40;99.90;;;;;;5088473;28;20434;-60
2023/04/18 11:52:37;;;;;;;2.78;1.38;;;14.50;99.90;;;;;;5090824;28;20425;-60
2023/04/18 11:55:13;;;;;;;2.58;1.60;;;14.40;99.90;;;;;;5091348;28;20429;-62
2023/04/18 11:57:40;;;;;;;1.95;1.23;;;14.30;99.90;;;;;;5092089;28;20508;-60
2023/04/18 12:00:11;;;;;;;1.90;1.30;;;14.20;99.90;;;;;;5093064;28;20838;-60
2023/04/18 12:02:43;;;;;;;2.00;1.30;;;14.10;99.90;;;;;;5092123;28;20435;-62
2023/04/18 12:05:13;;;;;;;2.70;1.23;;;14.20;99.90;;;;;;5093037;28;20837;-60
2023/04/18 12:07:41;;;;;;;2.00;1.30;;;14.10;99.90;;;;;;5094001;28;20475;-60
2023/04/18 12:10:09;;;;;;;2.38;1.40;;;14.00;99.90;;;;;;5091038;28;20422;-60
2023/04/18 12:12:36;;;;;;;2.40;1.50;;;14.10;99.90;;;;;;5090930;28;20825;-60
2023/04/18 12:15:07;;;;;;;2.83;1.67;;;14.30;99.90;;;;;;5091265;28;20450;-61
2023/04/18 12:17:35;;;;;;;2.20;1.60;;;14.40;99.90;;;;;;5092131;28;20808;-60
2023/04/18 12:20:08;;;;;;;2.30;1.83;;;14.70;99.90;;;;;;5088520;28;20551;-60
2023/04/18 12:22:43;;;;;;;2.90;1.67;;;14.50;99.90;;;;;;5089192;28;20467;-60
2023/04/18 12:25:20;;;;;;;3.47;1.70;;;14.50;99.90;;;;;;5089396;28;20924;-61
2023/04/18 12:27:52;;;;;;;2.95;1.73;;;14.60;99.90;;;;;;5091465;28;20449;-60
2023/04/18 12:30:20;;;;;;;4.40;2.50;;;14.70;99.90;;;;;;5089561;28;20898;-59
2023/04/18 12:32:49;;;;;;;2.63;1.70;;;14.70;99.90;;;;;;5085537;28;20418;-60
2023/04/18 12:35:19;;;;;;;2.60;1.70;;;14.80;99.90;;;;;;5085556;28;20429;-61
2023/04/18 12:37:47;;;;;;;3.67;2.05;;;14.80;99.90;;;;;;5090676;28;20417;-61
2023/04/18 12:40:14;;;;;;;2.80;1.40;;;14.90;99.90;;;;;;5087375;28;20421;-62
2023/04/18 12:42:42;;;;;;;2.42;1.20;;;15.00;99.90;;;;;;5089844;28;20441;-60
2023/04/18 12:45:11;;;;;;;1.70;1.20;;;15.10;99.90;;;;;;5091185;28;21112;-60
2023/04/18 12:47:39;;;;;;;1.60;1.10;;;15.10;99.90;;;;;;5090818;28;21041;-59
2023/04/18 12:50:08;;;;;;;1.60;1.20;;;15.10;99.90;;;;;;5091143;28;20485;-62
2023/04/18 12:52:38;;;;;;;2.10;1.20;;;15.30;99.90;;;;;;5091963;28;20503;-60
2023/04/18 12:55:07;;;;;;;1.60;1.10;;;15.30;99.90;;;;;;5092421;28;20853;-61
2023/04/18 12:57:34;;;;;;;2.03;1.20;;;15.20;99.90;;;;;;5093506;28;20849;-61
2023/04/18 13:00:03;;;;;;;1.80;1.10;;;15.30;99.90;;;;;;5094128;28;20426;-61
2023/04/18 13:02:31;;;;;;;1.88;1.30;;;15.40;99.90;;;;;;5093507;28;20414;-61